createdAt,value
2018-09-18T00:00:25.293Z,30.23
2018-09-18T00:02:55.402Z,39.53
2018-09-18T00:05:24.595Z,38.53
2018-09-18T00:07:53.870Z,28.00
2018-09-18T00:10:23.129Z,34.63
2018-09-18T00:12:52.369Z,33.40
2018-09-18T00:15:21.582Z,29.20
2018-09-18T00:17:50.736Z,30.37
2018-09-18T00:20:19.936Z,30.23
2018-09-18T00:22:49.181Z,36.53
2018-09-18T00:25:18.440Z,35.07
2018-09-18T00:27:47.566Z,35.50
2018-09-18T00:30:16.720Z,29.37
2018-09-18T00:32:45.917Z,33.60
2018-09-18T00:35:15.179Z,32.97
2018-09-18T00:37:44.438Z,40.47
2018-09-18T00:40:13.641Z,29.43
2018-09-18T00:42:42.874Z,33.93
2018-09-18T00:45:12.155Z,33.13
2018-09-18T00:47:41.677Z,34.70
2018-09-18T00:50:10.869Z,39.67
2018-09-18T00:52:40.143Z,32.03
2018-09-18T00:55:10.197Z,31.03
2018-09-18T00:57:39.420Z,34.87
2018-09-18T01:00:08.809Z,35.40
2018-09-18T01:02:37.997Z,29.30
2018-09-18T01:05:07.400Z,35.97
2018-09-18T01:07:36.696Z,33.10
2018-09-18T01:10:06.217Z,36.77
2018-09-18T01:12:35.431Z,32.90
2018-09-18T01:15:04.988Z,36.80
2018-09-18T01:17:34.184Z,35.40
2018-09-18T01:20:03.454Z,37.83
2018-09-18T01:22:32.620Z,27.97
2018-09-18T01:25:02.326Z,30.00
2018-09-18T01:27:31.531Z,28.47
2018-09-18T01:30:00.730Z,32.03
2018-09-18T01:32:29.925Z,32.20
2018-09-18T01:34:59.613Z,32.40
2018-09-18T01:37:29.161Z,30.83
2018-09-18T01:39:58.434Z,37.43
2018-09-18T01:42:27.629Z,33.97
2018-09-18T01:44:57.092Z,35.20
2018-09-18T01:47:27.060Z,34.20
2018-09-18T01:49:56.171Z,29.70
2018-09-18T01:52:25.614Z,30.40
2018-09-18T01:54:54.860Z,33.97
2018-09-18T01:57:24.388Z,33.77
2018-09-18T01:59:53.655Z,29.70
2018-09-18T02:02:23.277Z,36.10
2018-09-18T02:04:52.465Z,32.33
2018-09-18T02:07:21.678Z,36.70
2018-09-18T02:09:50.857Z,36.70
2018-09-18T02:12:19.994Z,32.80
2018-09-18T02:14:49.183Z,38.40
2018-09-18T02:17:18.388Z,35.27
2018-09-18T02:19:48.138Z,35.47
2018-09-18T02:22:17.331Z,39.07
2018-09-18T02:24:46.537Z,33.33
2018-09-18T02:27:15.787Z,30.33
2018-09-18T02:29:44.986Z,36.10
2018-09-18T02:32:14.154Z,39.37
2018-09-18T02:34:43.649Z,48.27
2018-09-18T02:37:12.868Z,39.07
2018-09-18T02:39:42.108Z,37.37
2018-09-18T02:42:11.229Z,48.60
2018-09-18T02:44:40.446Z,38.67
2018-09-18T02:47:09.692Z,44.57
2018-09-18T02:49:38.883Z,44.50
2018-09-18T02:52:08.390Z,51.33
2018-09-18T02:54:37.594Z,45.00
2018-09-18T02:57:06.487Z,45.73
2018-09-18T02:59:35.639Z,50.97
2018-09-18T03:02:05.288Z,42.43
2018-09-18T03:04:34.513Z,43.83
2018-09-18T03:07:03.757Z,46.57
2018-09-18T03:09:32.928Z,42.83
2018-09-18T03:12:02.196Z,41.97
2018-09-18T03:14:31.511Z,47.90
2018-09-18T03:17:00.724Z,58.63
2018-09-18T03:19:29.891Z,41.13
2018-09-18T03:21:59.061Z,37.37
2018-09-18T03:24:28.223Z,45.40
2018-09-18T03:26:57.371Z,37.67
2018-09-18T03:29:26.602Z,41.93
2018-09-18T03:31:55.878Z,37.80
2018-09-18T03:34:25.033Z,46.10
2018-09-18T03:36:54.220Z,47.80
2018-09-18T03:39:23.401Z,48.03
2018-09-18T03:41:52.528Z,53.07
2018-09-18T03:44:21.723Z,42.23
2018-09-18T03:46:50.892Z,109.73
2018-09-18T03:49:20.023Z,93.13
2018-09-18T03:51:49.263Z,82.30
2018-09-18T03:54:18.485Z,106.47
2018-09-18T03:56:47.723Z,126.13
2018-09-18T03:59:17.198Z,112.47
2018-09-18T04:01:46.367Z,132.13
2018-09-18T04:04:15.577Z,114.80
2018-09-18T04:06:45.478Z,108.53
2018-09-18T04:09:16.196Z,112.30
2018-09-18T04:11:45.362Z,101.43
2018-09-18T04:14:14.509Z,90.97
2018-09-18T04:16:43.703Z,90.80
2018-09-18T04:19:12.916Z,82.67
2018-09-18T04:21:43.306Z,90.00
2018-09-18T04:24:12.432Z,79.27
2018-09-18T04:26:42.021Z,80.40
2018-09-18T04:29:11.254Z,76.00
2018-09-18T04:31:41.430Z,77.00
2018-09-18T04:34:10.593Z,71.57
2018-09-18T04:36:39.757Z,71.83
2018-09-18T04:39:10.990Z,69.23
2018-09-18T04:41:40.191Z,67.80
2018-09-18T04:44:10.088Z,67.30
2018-09-18T04:46:39.264Z,67.00
2018-09-18T04:49:09.457Z,68.30
2018-09-18T04:51:38.575Z,68.47
2018-09-18T04:54:07.771Z,73.63
2018-09-18T04:56:39.269Z,60.70
2018-09-18T04:59:08.421Z,71.67
2018-09-18T05:01:38.812Z,67.33
2018-09-18T05:04:07.980Z,73.87
2018-09-18T05:06:37.151Z,53.70
2018-09-18T05:09:08.802Z,76.87
2018-09-18T05:11:38.076Z,56.00
2018-09-18T05:14:07.275Z,58.30
2018-09-18T05:16:36.445Z,61.77
2018-09-18T05:19:05.680Z,69.10
2018-09-18T05:21:34.906Z,60.23
2018-09-18T05:24:04.136Z,66.43
2018-09-18T05:26:33.648Z,65.00
2018-09-18T05:29:02.810Z,68.33
2018-09-18T05:31:31.953Z,59.13
2018-09-18T05:34:01.151Z,59.57
2018-09-18T05:36:30.565Z,55.13
2018-09-18T05:38:59.708Z,61.23
2018-09-18T05:41:28.974Z,64.80
2018-09-18T05:43:58.122Z,64.87
2018-09-18T05:46:27.261Z,65.83
2018-09-18T05:48:56.434Z,56.30
2018-09-18T05:51:25.548Z,62.50
2018-09-18T05:53:54.810Z,54.80
2018-09-18T05:56:23.965Z,51.70
2018-09-18T05:58:53.137Z,56.27
2018-09-18T06:01:22.361Z,53.10
2018-09-18T06:03:51.546Z,52.93
2018-09-18T06:06:20.706Z,46.90
2018-09-18T06:08:49.948Z,51.70
2018-09-18T06:11:19.122Z,46.67
2018-09-18T06:13:48.312Z,45.77
2018-09-18T06:16:17.497Z,55.33
2018-09-18T06:18:47.069Z,41.63
2018-09-18T06:21:16.176Z,43.67
2018-09-18T06:23:45.396Z,41.13
2018-09-18T06:26:14.624Z,43.97
2018-09-18T06:28:43.769Z,41.90
2018-09-18T06:31:12.993Z,41.90
2018-09-18T06:33:42.197Z,44.17
2018-09-18T06:36:11.452Z,44.07
2018-09-18T06:38:40.697Z,44.80
2018-09-18T06:41:09.817Z,42.80
2018-09-18T06:43:39.013Z,35.87
2018-09-18T06:46:08.488Z,37.90
2018-09-18T06:48:37.950Z,38.60
2018-09-18T06:51:07.312Z,35.33
2018-09-18T06:53:36.560Z,36.20
2018-09-18T06:56:05.824Z,33.77
2018-09-18T06:58:35.671Z,32.90
2018-09-18T07:01:04.976Z,33.07
2018-09-18T07:03:34.222Z,31.37
2018-09-18T07:06:03.569Z,35.37
2018-09-18T07:08:32.881Z,35.50
2018-09-18T07:11:02.303Z,38.90
2018-09-18T07:13:32.560Z,37.07
2018-09-18T07:16:01.765Z,34.50
2018-09-18T07:18:31.029Z,33.17
2018-09-18T07:21:00.641Z,32.93
2018-09-18T07:23:29.894Z,31.40
2018-09-18T07:25:59.179Z,28.53
2018-09-18T07:28:28.416Z,30.00
2018-09-18T07:30:57.845Z,28.00
2018-09-18T07:33:27.111Z,27.90
2018-09-18T07:35:56.423Z,25.93
2018-09-18T07:38:25.702Z,31.00
2018-09-18T07:40:55.052Z,26.30
2018-09-18T07:43:24.255Z,27.37
2018-09-18T07:45:53.479Z,23.27
2018-09-18T07:48:22.729Z,23.53
2018-09-18T07:50:52.233Z,27.10
2018-09-18T07:53:21.425Z,21.87
2018-09-18T07:55:51.224Z,31.80
2018-09-18T07:58:20.398Z,24.03
2018-09-18T08:00:50.069Z,32.10
2018-09-18T08:03:19.362Z,22.00
2018-09-18T08:05:49.060Z,26.73
2018-09-18T08:08:18.435Z,29.97
2018-09-18T08:10:47.820Z,28.63
2018-09-18T08:13:17.111Z,23.00
2018-09-18T08:15:46.362Z,25.03
2018-09-18T08:18:15.640Z,25.20
2018-09-18T08:20:44.895Z,21.00
2018-09-18T08:23:14.141Z,23.80
2018-09-18T08:25:43.423Z,23.23
2018-09-18T08:28:12.982Z,23.80
2018-09-18T08:30:42.281Z,21.27
2018-09-18T08:33:11.771Z,23.50
2018-09-18T08:35:40.945Z,27.10
2018-09-18T08:38:10.128Z,21.90
2018-09-18T08:40:39.333Z,23.77
2018-09-18T08:43:08.720Z,26.87
2018-09-18T08:45:37.858Z,22.10
2018-09-18T08:48:07.001Z,21.60
2018-09-18T08:50:36.340Z,24.97
2018-09-18T08:53:05.575Z,19.27
2018-09-18T08:55:34.887Z,18.90
2018-09-18T08:58:04.710Z,18.63
2018-09-18T09:00:33.870Z,16.80
2018-09-18T09:03:03.201Z,31.30
2018-09-18T09:05:32.409Z,20.20
2018-09-18T09:08:01.687Z,17.20
2018-09-18T09:10:30.884Z,16.43
2018-09-18T09:13:00.011Z,17.90
2018-09-18T09:15:29.210Z,17.37
2018-09-18T09:17:58.467Z,16.13
2018-09-18T09:20:27.624Z,24.60
2018-09-18T09:22:56.914Z,16.27
2018-09-18T09:25:26.081Z,14.57
2018-09-18T09:27:55.273Z,32.77
2018-09-18T09:30:24.423Z,19.77
2018-09-18T09:32:53.711Z,16.40
2018-09-18T09:35:22.878Z,14.37
2018-09-18T09:37:52.066Z,16.67
2018-09-18T09:40:21.285Z,27.23
2018-09-18T09:42:50.505Z,13.27
2018-09-18T09:45:19.780Z,13.47
2018-09-18T09:47:48.930Z,14.13
2018-09-18T09:50:18.120Z,14.43
2018-09-18T09:52:47.262Z,14.40
2018-09-18T09:55:16.477Z,15.03
2018-09-18T09:57:45.659Z,13.80
2018-09-18T10:00:20.009Z,13.50
2018-09-18T10:02:49.435Z,13.90
2018-09-18T10:05:19.361Z,13.50
2018-09-18T10:07:49.074Z,13.23
2018-09-18T10:10:20.544Z,19.90
2018-09-18T10:12:49.677Z,13.03
2018-09-18T10:15:19.125Z,20.43
2018-09-18T10:17:48.338Z,12.77
2018-09-18T10:20:17.509Z,13.97
2018-09-18T10:22:46.778Z,12.73
2018-09-18T10:25:15.946Z,16.47
2018-09-18T10:27:45.129Z,16.07
2018-09-18T10:30:14.292Z,12.20
2018-09-18T10:32:43.517Z,11.40
2018-09-18T10:35:12.695Z,22.47
2018-09-18T10:37:41.826Z,14.70
2018-09-18T10:40:11.173Z,12.47
2018-09-18T10:42:40.394Z,12.83
2018-09-18T10:45:10.041Z,11.10
2018-09-18T10:47:39.228Z,11.83
2018-09-18T10:50:08.400Z,11.87
2018-09-18T10:52:37.834Z,10.93
2018-09-18T10:55:07.210Z,11.77
2018-09-18T10:57:36.343Z,11.17
2018-09-18T11:00:06.596Z,10.80
2018-09-18T11:02:35.748Z,15.10
2018-09-18T11:05:05.055Z,10.97
2018-09-18T11:07:34.333Z,12.13
2018-09-18T11:10:03.587Z,11.40
2018-09-18T11:12:32.679Z,10.60
2018-09-18T11:15:02.467Z,11.03
2018-09-18T11:17:31.569Z,15.47
2018-09-18T11:20:00.879Z,18.00
2018-09-18T11:22:29.975Z,10.87
2018-09-18T11:24:59.175Z,10.77
2018-09-18T11:27:28.434Z,11.83
2018-09-18T11:29:58.346Z,10.30
2018-09-18T11:32:27.515Z,13.13
2018-09-18T11:34:56.771Z,9.93
2018-09-18T11:37:25.957Z,11.17
2018-09-18T11:39:55.161Z,10.40
2018-09-18T11:42:24.338Z,9.00
2018-09-18T11:44:53.502Z,9.57
2018-09-18T11:47:22.678Z,11.63
2018-09-18T11:49:51.881Z,9.80
2018-09-18T11:52:21.026Z,11.83
2018-09-18T11:54:50.439Z,9.83
2018-09-18T11:57:19.592Z,13.70
2018-09-18T11:59:48.813Z,10.00
2018-09-18T12:02:18.017Z,9.97
2018-09-18T12:04:47.266Z,11.10
2018-09-18T12:07:16.416Z,12.93
2018-09-18T12:09:45.690Z,10.43
2018-09-18T12:12:14.948Z,9.03
2018-09-18T12:14:44.183Z,12.90
2018-09-18T12:17:13.363Z,8.40
2018-09-18T12:19:42.537Z,9.90
2018-09-18T12:22:11.718Z,10.63
2018-09-18T12:24:40.816Z,10.33
2018-09-18T12:27:10.317Z,8.53
2018-09-18T12:29:39.534Z,10.70
2018-09-18T12:32:08.844Z,11.77
2018-09-18T12:34:38.422Z,9.10
2018-09-18T12:37:07.950Z,15.30
2018-09-18T12:39:37.095Z,11.93
2018-09-18T12:42:07.264Z,18.30
2018-09-18T12:44:36.297Z,10.27
2018-09-18T12:47:05.538Z,11.13
2018-09-18T12:49:34.930Z,10.70
2018-09-18T12:52:03.956Z,13.03
2018-09-18T12:54:33.143Z,9.83
2018-09-18T12:57:02.481Z,10.67
2018-09-18T12:59:31.566Z,9.23
2018-09-18T13:02:00.717Z,15.27
2018-09-18T13:04:29.283Z,9.33
2018-09-18T13:06:57.932Z,9.57
2018-09-18T13:09:26.563Z,9.13
2018-09-18T13:11:55.289Z,11.00
2018-09-18T13:14:23.884Z,9.00
2018-09-18T13:16:53.160Z,10.20
2018-09-18T13:19:22.409Z,8.90
2018-09-18T13:21:51.547Z,8.23
2018-09-18T13:24:20.699Z,14.77
2018-09-18T13:26:50.010Z,9.30
2018-09-18T13:29:19.178Z,10.70
2018-09-18T13:31:48.373Z,17.70
2018-09-18T13:34:17.949Z,8.40
2018-09-18T13:36:47.081Z,9.07
2018-09-18T13:39:16.221Z,8.90
2018-09-18T13:41:45.456Z,8.50
2018-09-18T13:44:14.654Z,10.90
2018-09-18T13:46:43.773Z,8.00
2018-09-18T13:49:13.026Z,8.63
2018-09-18T13:51:42.307Z,9.27
2018-09-18T13:54:11.476Z,9.63
2018-09-18T13:56:40.792Z,8.80
2018-09-18T13:59:09.906Z,9.27
2018-09-18T14:01:39.296Z,9.00
2018-09-18T14:04:08.450Z,9.00
2018-09-18T14:06:37.618Z,8.97
2018-09-18T14:09:08.543Z,9.47
2018-09-18T14:11:38.108Z,9.50
2018-09-18T14:14:07.435Z,8.53
2018-09-18T14:16:36.630Z,11.23
2018-09-18T14:19:05.882Z,9.30
2018-09-18T14:21:35.079Z,7.93
2018-09-18T14:24:04.249Z,9.13
2018-09-18T14:26:33.531Z,8.20
2018-09-18T14:29:02.516Z,8.10
2018-09-18T14:31:32.427Z,8.23
2018-09-18T14:34:01.586Z,8.63
2018-09-18T14:36:30.715Z,9.47
2018-09-18T14:38:59.976Z,7.93
2018-09-18T14:41:29.169Z,8.70
2018-09-18T14:43:58.372Z,14.33
2018-09-18T14:46:27.573Z,12.83
2018-09-18T14:48:56.866Z,6.73
2018-09-18T14:51:26.042Z,10.10
2018-09-18T14:53:55.829Z,9.63
2018-09-18T14:56:25.086Z,8.47
2018-09-18T14:58:54.232Z,8.27
2018-09-18T15:01:23.440Z,10.13
2018-09-18T15:03:52.968Z,8.67
2018-09-18T15:06:22.091Z,8.50
2018-09-18T15:08:51.271Z,9.73
2018-09-18T15:11:20.487Z,8.63
2018-09-18T15:13:49.733Z,13.67
2018-09-18T15:16:18.901Z,7.63
2018-09-18T15:18:48.165Z,8.43
2018-09-18T15:21:17.440Z,10.20
2018-09-18T15:23:46.566Z,9.37
2018-09-18T15:26:15.730Z,12.17
2018-09-18T15:28:44.889Z,9.20
2018-09-18T15:31:14.223Z,7.77
2018-09-18T15:33:43.778Z,8.83
2018-09-18T15:36:12.860Z,8.60
2018-09-18T15:38:42.877Z,27.50
2018-09-18T15:41:12.405Z,8.00
2018-09-18T15:43:42.060Z,7.80
2018-09-18T15:46:11.428Z,9.97
2018-09-18T15:48:40.978Z,9.53
2018-09-18T15:51:10.668Z,8.97
2018-09-18T15:53:40.366Z,8.10
2018-09-18T15:56:09.958Z,9.30
2018-09-18T15:58:40.677Z,9.90
2018-09-18T16:01:10.757Z,8.80
2018-09-18T16:03:40.589Z,8.50
2018-09-18T16:06:09.758Z,13.40
2018-09-18T16:08:40.141Z,13.27
2018-09-18T16:11:09.523Z,8.33
2018-09-18T16:13:38.689Z,12.70
2018-09-18T16:16:08.362Z,8.57
2018-09-18T16:18:37.885Z,8.63
2018-09-18T16:21:07.117Z,14.90
2018-09-18T16:23:36.777Z,19.13
2018-09-18T16:26:06.052Z,9.00
2018-09-18T16:28:35.438Z,9.33
2018-09-18T16:31:04.920Z,11.63
2018-09-18T16:33:34.090Z,9.60
2018-09-18T16:36:03.278Z,8.40
2018-09-18T16:38:32.934Z,17.47
2018-09-18T16:41:02.289Z,9.40
2018-09-18T16:43:31.392Z,8.43
2018-09-18T16:46:00.979Z,9.60
2018-09-18T16:48:30.291Z,11.20
2018-09-18T16:50:59.430Z,10.57
2018-09-18T16:53:28.986Z,17.83
2018-09-18T16:55:58.101Z,9.73
2018-09-18T16:58:27.706Z,9.50
2018-09-18T17:00:57.131Z,9.30
2018-09-18T17:03:26.301Z,15.57
2018-09-18T17:05:55.510Z,12.03
2018-09-18T17:08:24.940Z,9.23
2018-09-18T17:10:54.089Z,9.20
2018-09-18T17:13:23.373Z,10.87
2018-09-18T17:15:52.925Z,28.40
2018-09-18T17:18:22.127Z,12.83
2018-09-18T17:20:51.595Z,9.50
2018-09-18T17:23:21.111Z,9.63
2018-09-18T17:25:50.241Z,10.73
2018-09-18T17:28:19.524Z,15.77
2018-09-18T17:30:48.658Z,9.23
2018-09-18T17:33:18.112Z,16.33
2018-09-18T17:35:47.565Z,15.93
2018-09-18T17:38:16.800Z,13.97
2018-09-18T17:40:45.934Z,10.40
2018-09-18T17:43:15.180Z,10.83
2018-09-18T17:45:44.417Z,15.53
2018-09-18T17:48:13.615Z,10.60
2018-09-18T17:50:43.070Z,11.03
2018-09-18T17:53:12.340Z,18.13
2018-09-18T17:55:41.926Z,10.63
2018-09-18T17:58:11.195Z,10.70
2018-09-18T18:00:40.421Z,11.10
2018-09-18T18:03:09.721Z,11.20
2018-09-18T18:05:39.019Z,10.20
2018-09-18T18:08:08.428Z,10.90
2018-09-18T18:10:37.664Z,10.53
2018-09-18T18:13:07.837Z,11.40
2018-09-18T18:15:37.598Z,10.10
2018-09-18T18:18:06.798Z,14.23
2018-09-18T18:20:36.062Z,10.77
2018-09-18T18:23:05.870Z,12.00
2018-09-18T18:25:35.106Z,12.13
2018-09-18T18:28:04.377Z,12.43
2018-09-18T18:30:33.682Z,12.77
2018-09-18T18:33:02.942Z,13.13
2018-09-18T18:35:32.174Z,11.80
2018-09-18T18:38:01.665Z,12.87
2018-09-18T18:40:30.839Z,11.57
2018-09-18T18:43:00.017Z,14.00
2018-09-18T18:45:29.450Z,18.93
2018-09-18T18:47:58.836Z,10.93
2018-09-18T18:50:27.913Z,11.17
2018-09-18T18:52:57.362Z,14.87
2018-09-18T18:55:26.567Z,17.40
2018-09-18T18:57:55.699Z,11.63
2018-09-18T19:00:25.287Z,12.50
2018-09-18T19:02:54.524Z,16.70
2018-09-18T19:05:24.162Z,12.03
2018-09-18T19:07:53.365Z,13.17
2018-09-18T19:10:22.650Z,13.23
2018-09-18T19:12:51.836Z,16.60
2018-09-18T19:15:21.053Z,12.20
2018-09-18T19:17:50.263Z,16.80
2018-09-18T19:20:19.451Z,12.57
2018-09-18T19:22:49.093Z,21.30
2018-09-18T19:25:18.528Z,17.47
2018-09-18T19:27:47.730Z,12.27
2018-09-18T19:30:17.714Z,15.23
2018-09-18T19:32:46.908Z,15.67
2018-09-18T19:35:16.102Z,14.57
2018-09-18T19:37:45.456Z,13.43
2018-09-18T19:40:14.777Z,11.73
2018-09-18T19:42:43.930Z,12.00
2018-09-18T19:45:13.144Z,12.40
2018-09-18T19:47:42.294Z,13.60
2018-09-18T19:50:16.031Z,13.47
2018-09-18T19:52:46.648Z,13.97
2018-09-18T19:55:16.429Z,13.07
2018-09-18T19:57:46.291Z,15.70
2018-09-18T20:00:15.502Z,15.47
2018-09-18T20:02:44.654Z,15.97
2018-09-18T20:05:14.119Z,15.40
2018-09-18T20:07:43.237Z,14.60
2018-09-18T20:10:12.371Z,18.70
2018-09-18T20:12:41.626Z,24.40
2018-09-18T20:15:10.840Z,16.37
2018-09-18T20:17:40.000Z,15.83
2018-09-18T20:20:09.548Z,16.30
2018-09-18T20:22:38.693Z,15.10
2018-09-18T20:25:08.038Z,20.97
2018-09-18T20:27:37.261Z,19.80
2018-09-18T20:30:06.704Z,22.23
2018-09-18T20:32:35.872Z,22.57
2018-09-18T20:35:05.046Z,23.63
2018-09-18T20:37:34.294Z,20.27
2018-09-18T20:40:04.329Z,18.03
2018-09-18T20:42:33.661Z,18.27
2018-09-18T20:45:02.819Z,23.90
2018-09-18T20:47:31.978Z,22.50
2018-09-18T20:50:01.213Z,25.60
2018-09-18T20:52:30.407Z,23.70
2018-09-18T20:54:59.911Z,30.03
2018-09-18T20:57:29.226Z,23.57
2018-09-18T20:59:58.380Z,31.50
2018-09-18T21:02:29.148Z,30.60
2018-09-18T21:04:58.348Z,22.93
2018-09-18T21:07:27.530Z,26.70
2018-09-18T21:09:56.674Z,22.90
2018-09-18T21:12:25.962Z,22.87
2018-09-18T21:14:55.088Z,20.27
2018-09-18T21:17:24.303Z,20.33
2018-09-18T21:19:53.562Z,24.37
2018-09-18T21:22:22.713Z,21.83
2018-09-18T21:25:00.513Z,20.87
2018-09-18T21:27:29.669Z,21.83
2018-09-18T21:29:58.825Z,23.67
2018-09-18T21:32:28.047Z,21.80
2018-09-18T21:34:57.174Z,20.50
2018-09-18T21:37:26.367Z,25.40
2018-09-18T21:39:55.622Z,25.80
2018-09-18T21:42:24.888Z,24.27
2018-09-18T21:44:54.043Z,24.83
2018-09-18T21:47:23.338Z,25.87
2018-09-18T21:49:53.255Z,31.30
2018-09-18T21:52:22.382Z,55.57
2018-09-18T21:54:51.545Z,36.13
2018-09-18T21:57:20.736Z,27.77
2018-09-18T21:59:50.070Z,30.00
2018-09-18T22:02:19.263Z,25.90
2018-09-18T22:04:48.423Z,25.70
2018-09-18T22:07:17.585Z,26.33
2018-09-18T22:09:46.788Z,28.77
2018-09-18T22:12:16.086Z,28.63
2018-09-18T22:14:45.221Z,25.93
2018-09-18T22:17:14.408Z,28.70
2018-09-18T22:19:43.600Z,34.37
2018-09-18T22:22:12.836Z,35.90
2018-09-18T22:24:42.418Z,28.80
2018-09-18T22:27:11.574Z,37.20
2018-09-18T22:29:40.735Z,26.60
2018-09-18T22:32:09.925Z,28.47
2018-09-18T22:34:39.078Z,35.43
2018-09-18T22:37:08.808Z,31.80
2018-09-18T22:39:41.201Z,26.33
2018-09-18T22:42:10.397Z,38.53
2018-09-18T22:44:39.636Z,27.57
2018-09-18T22:47:09.106Z,26.83
2018-09-18T22:49:38.473Z,26.67
2018-09-18T22:52:07.725Z,34.97
2018-09-18T22:54:37.131Z,39.80
2018-09-18T22:57:06.681Z,27.77
2018-09-18T22:59:36.229Z,23.10
2018-09-18T23:02:05.561Z,30.07
2018-09-18T23:04:34.757Z,22.80
2018-09-18T23:07:03.942Z,26.93
2018-09-18T23:09:33.458Z,21.27
2018-09-18T23:12:02.739Z,29.20
2018-09-18T23:14:31.882Z,20.43
2018-09-18T23:17:01.139Z,24.67
2018-09-18T23:19:31.138Z,24.83
2018-09-18T23:22:00.292Z,18.10
2018-09-18T23:24:29.509Z,17.60
2018-09-18T23:26:58.853Z,21.47
2018-09-18T23:29:28.028Z,15.53
2018-09-18T23:31:57.240Z,14.93
2018-09-18T23:34:26.441Z,14.03
2018-09-18T23:36:55.754Z,14.93
2018-09-18T23:39:24.889Z,13.43
2018-09-18T23:41:54.071Z,13.93
2018-09-18T23:44:23.208Z,12.70
2018-09-18T23:46:52.377Z,15.20
2018-09-18T23:49:21.946Z,13.90
2018-09-18T23:51:51.265Z,13.17
2018-09-18T23:54:20.517Z,10.60
2018-09-18T23:56:49.754Z,9.73
2018-09-18T23:59:18.926Z,10.33
